Current | Forecast
Updated: 10:00 PM JST on August 16, 2017
Observed at Oita Airport, Japan
Temperature 81°F
Humidity 84%
Dew Point 75°F
Wind WSW at 4 mph
Pressure 29.71 in (Steady)
Conditions Partly Cloudy
Visibility 6.2 miles
UV 0 out of 16
Clouds (FEW) : 3500 ft
Yesterday's Maximum 90°F
Yesterday's Minimum 79°F approx.
Yesterday's Cooling Degree Days 19 approx.
Sunrise5:37 AM JST
Sunset6:59 PM JST
Moon Rise
Moon Set1:51 PM JST
Moon PhaseMoon Phase
Waning Crescent
Raw METARMETAR RJFO 161300Z 25003KT 9999 FEW035 27/24 Q1006


Monday
. High: 65° F.
Tuesday
. High: 69° F.
Wednesday
. High: 66° F.
Thursday
. High: 69° F.
Friday
. High: 71° F.
Saturday
. High: 69° F.
Sunday
. High: 77° F.
Monday
. High: 77° F.

Units: English | Metric

Find the Weather for any City, State or Zipcode, or Country:

U.S. State List | Severe Weather | Tropical Storms | Ski Conditions
United States | Canada | Central America | South America | Asia | Europe | Australia | Africa | Islands

Weather Underground

© Copyright 2017
The Weather Company, LLC